Time;durP1;ratioP1;P1;durP2;ratioP2;P2;SDS_P1;SDS_P2;PMS_P1;PMS_P2;Temp;Humidity;BMP_temperature;BMP_pressure;BME280_temperature;BME280_humidity;BME280_pressure;Samples;Min_cycle;Max_cycle;Signal;HPM_P1;HPM_P2
2022/09/17 00:02:06;;;;;;;15.32;14.52;;;15.30;63.30;;;;;;5008230;28;20435;-77
2022/09/17 00:04:32;;;;;;;15.00;14.10;;;15.30;63.80;;;;;;4993867;28;20041;-77
2022/09/17 00:06:58;;;;;;;16.73;15.50;;;15.40;63.40;;;;;;5009531;28;20053;-77
2022/09/17 00:09:24;;;;;;;16.83;15.73;;;15.40;63.00;;;;;;5009668;28;20420;-77
2022/09/17 00:11:50;;;;;;;16.73;15.57;;;15.40;62.90;;;;;;5009038;28;20046;-78
2022/09/17 00:14:16;;;;;;;16.17;15.27;;;15.30;63.30;;;;;;5009329;28;20402;-77
2022/09/17 00:16:44;;;;;;;15.48;14.00;;;15.30;63.30;;;;;;4992953;28;20026;-77
2022/09/17 00:19:21;;;;;;;14.63;13.82;;;15.30;63.30;;;;;;5009340;28;20026;-77
2022/09/17 00:21:48;;;;;;;14.57;13.70;;;15.30;63.10;;;;;;5009447;28;20022;-78
2022/09/17 00:24:14;;;;;;;15.20;14.13;;;15.30;63.40;;;;;;5009603;28;20383;-77
2022/09/17 00:26:41;;;;;;;15.02;14.10;;;15.30;63.30;;;;;;4993046;28;20041;-78
2022/09/17 00:29:07;;;;;;;16.05;15.00;;;15.20;64.00;;;;;;4992678;28;20053;-77
2022/09/17 00:31:33;;;;;;;17.13;16.00;;;15.20;63.70;;;;;;5012462;28;20490;-78
2022/09/17 00:34:00;;;;;;;14.93;13.95;;;15.20;63.60;;;;;;5013210;28;20029;-77
2022/09/17 00:36:26;;;;;;;14.35;13.35;;;15.20;63.80;;;;;;5013125;28;20398;-78
2022/09/17 00:38:57;;;;;;;17.23;16.33;;;15.20;63.90;;;;;;5013143;28;20046;-77
2022/09/17 00:41:28;;;;;;;19.80;18.42;;;15.20;64.00;;;;;;5012521;28;20030;-77
2022/09/17 00:44:21;;;;;;;18.88;17.88;;;15.20;64.90;;;;;;4996374;28;20057;-77
2022/09/17 00:46:47;;;;;;;19.67;18.35;;;15.20;64.30;;;;;;5012280;28;20054;-77
2022/09/17 00:49:18;;;;;;;16.38;15.55;;;15.20;63.70;;;;;;5012787;28;20041;-77
2022/09/17 00:51:58;;;;;;;16.90;15.90;;;15.20;63.70;;;;;;5012707;28;20045;-77
2022/09/17 00:54:25;;;;;;;18.90;17.80;;;15.20;63.80;;;;;;5012074;28;20092;-77
2022/09/17 00:56:51;;;;;;;16.95;15.82;;;15.10;64.40;;;;;;5012657;28;20772;-78
2022/09/17 00:59:18;;;;;;;18.05;17.10;;;15.10;65.20;;;;;;4995985;28;20038;-77
2022/09/17 01:01:45;;;;;;;16.88;15.68;;;15.10;64.30;;;;;;4996015;28;20034;-78
2022/09/17 01:04:22;;;;;;;15.75;14.75;;;15.30;63.90;;;;;;4996805;28;20049;-77
2022/09/17 01:06:57;;;;;;;15.23;14.25;;;15.30;63.50;;;;;;4996672;28;20493;-77
2022/09/17 01:09:33;;;;;;;14.48;13.63;;;15.40;63.40;;;;;;5011859;28;20045;-78
2022/09/17 01:12:18;;;;;;;13.73;13.02;;;15.40;63.30;;;;;;4996325;28;20060;-77
2022/09/17 01:15:02;;;;;;;13.70;12.93;;;15.30;63.60;;;;;;5013527;28;20029;-77
2022/09/17 01:17:41;;;;;;;15.55;14.52;;;15.30;64.10;;;;;;5032588;28;20049;-77
2022/09/17 01:20:38;;;;;;;15.00;13.63;;;15.30;64.10;;;;;;5032102;28;20033;-78
2022/09/17 01:23:04;;;;;;;16.63;15.80;;;15.30;64.20;;;;;;5032151;28;20030;-77
2022/09/17 01:25:49;;;;;;;19.30;18.10;;;15.20;64.10;;;;;;5032945;28;20029;-77
2022/09/17 01:28:41;;;;;;;21.10;19.70;;;15.20;64.70;;;;;;5014209;28;20038;-77
2022/09/17 01:31:13;;;;;;;18.73;17.63;;;15.10;64.80;;;;;;4991714;28;20045;-77
2022/09/17 01:34:18;;;;;;;19.92;18.48;;;15.10;64.60;;;;;;4976150;28;20034;-77
2022/09/17 01:36:51;;;;;;;14.40;13.45;;;15.00;64.80;;;;;;4992536;28;20034;-77
2022/09/17 01:39:27;;;;;;;19.33;18.23;;;14.90;65.50;;;;;;4976760;28;20038;-77
2022/09/17 01:42:01;;;;;;;20.17;19.08;;;14.80;65.60;;;;;;5008281;28;20029;-77
2022/09/17 01:44:44;;;;;;;14.88;13.88;;;14.80;66.50;;;;;;4995506;28;20057;-77
2022/09/17 01:47:34;;;;;;;16.80;15.70;;;14.80;65.80;;;;;;5010926;28;20042;-77
2022/09/17 01:50:04;;;;;;;16.88;15.85;;;14.70;66.00;;;;;;4995062;28;20387;-77
2022/09/17 01:52:32;;;;;;;18.50;17.27;;;14.70;66.20;;;;;;4994886;28;20042;-78
2022/09/17 01:54:59;;;;;;;19.45;18.25;;;14.70;66.10;;;;;;5011509;28;20030;-78
2022/09/17 01:57:28;;;;;;;15.40;14.55;;;14.70;66.40;;;;;;5011767;28;20029;-78
2022/09/17 01:59:58;;;;;;;16.02;14.93;;;14.70;66.20;;;;;;4995582;28;20042;-78
2022/09/17 02:02:59;;;;;;;18.27;17.17;;;14.70;66.50;;;;;;5011148;28;20049;-78
2022/09/17 02:05:33;;;;;;;18.10;17.00;;;14.60;66.50;;;;;;5011239;28;20491;-78
2022/09/17 02:08:05;;;;;;;19.77;18.27;;;14.60;67.30;;;;;;4994563;28;20053;-78
2022/09/17 02:10:33;;;;;;;18.52;17.20;;;14.50;66.70;;;;;;5011536;28;20463;-77
2022/09/17 02:13:01;;;;;;;16.63;15.63;;;14.50;66.80;;;;;;4994616;28;20056;-77
2022/09/17 02:15:33;;;;;;;17.10;16.10;;;14.50;66.90;;;;;;5009763;28;20049;-77
2022/09/17 02:18:09;;;;;;;16.48;15.57;;;14.50;67.30;;;;;;5011101;28;20030;-77
2022/09/17 02:20:42;;;;;;;16.48;15.57;;;14.50;67.60;;;;;;5011025;28;20030;-77
2022/09/17 02:23:21;;;;;;;17.20;16.10;;;14.50;67.80;;;;;;5010810;28;20360;-77
2022/09/17 02:25:57;;;;;;;19.85;18.80;;;14.50;67.70;;;;;;5011071;28;20029;-77
2022/09/17 02:28:44;;;;;;;18.05;17.05;;;14.40;67.70;;;;;;5010704;28;20487;-77
2022/09/17 02:31:10;;;;;;;17.33;16.08;;;14.40;68.00;;;;;;5009720;28;20048;-77
2022/09/17 02:33:36;;;;;;;17.05;16.15;;;14.30;68.00;;;;;;5010763;28;20033;-77
2022/09/17 02:36:03;;;;;;;16.50;15.48;;;14.30;67.70;;;;;;5010628;28;20365;-77
2022/09/17 02:38:29;;;;;;;17.73;16.73;;;14.30;67.90;;;;;;5010735;28;20037;-77
2022/09/17 02:41:16;;;;;;;17.85;16.75;;;14.20;68.00;;;;;;4992926;28;20042;-77
2022/09/17 02:43:48;;;;;;;19.08;17.98;;;14.20;68.00;;;;;;5010503;28;20034;-77
2022/09/17 02:46:36;;;;;;;20.92;19.70;;;14.20;68.10;;;;;;5010207;28;20033;-77
2022/09/17 02:49:12;;;;;;;24.95;23.27;;;14.20;68.70;;;;;;5010797;28;20045;-78
2022/09/17 02:51:56;;;;;;;25.63;24.38;;;14.10;68.80;;;;;;4993494;28;20503;-77
2022/09/17 02:54:22;;;;;;;24.95;23.70;;;14.10;69.30;;;;;;5010462;28;20030;-77
2022/09/17 02:57:09;;;;;;;23.05;21.88;;;14.10;68.80;;;;;;5011727;28;20030;-77
2022/09/17 03:00:02;;;;;;;21.38;20.27;;;14.10;69.00;;;;;;4980231;28;20037;-77
2022/09/17 03:02:34;;;;;;;20.13;19.05;;;14.10;68.90;;;;;;4996237;28;20045;-78
2022/09/17 03:05:00;;;;;;;21.33;20.23;;;14.00;68.70;;;;;;4978176;28;20042;-78
2022/09/17 03:07:28;;;;;;;19.25;17.80;;;14.00;68.70;;;;;;4978020;28;20045;-77
2022/09/17 03:09:54;;;;;;;17.30;16.20;;;14.00;68.90;;;;;;5009044;28;20018;-77
2022/09/17 03:12:20;;;;;;;16.73;15.63;;;14.00;68.90;;;;;;4993833;28;20399;-77
2022/09/17 03:14:47;;;;;;;17.90;16.80;;;14.00;68.90;;;;;;4993504;28;20236;-77
2022/09/17 03:17:13;;;;;;;17.55;16.40;;;14.00;68.90;;;;;;4993307;28;20502;-77
2022/09/17 03:19:39;;;;;;;16.73;15.82;;;14.00;69.20;;;;;;5011111;28;20053;-77
2022/09/17 03:22:05;;;;;;;17.65;16.55;;;14.00;69.20;;;;;;4977368;28;20037;-77
2022/09/17 03:24:32;;;;;;;16.70;15.65;;;13.90;69.50;;;;;;5010256;28;20396;-78
2022/09/17 03:26:58;;;;;;;16.00;15.10;;;13.90;69.60;;;;;;5009449;28;20053;-77
2022/09/17 03:29:24;;;;;;;15.48;14.52;;;13.90;69.20;;;;;;4991153;28;20373;-77
2022/09/17 03:31:50;;;;;;;15.65;14.85;;;13.90;69.20;;;;;;4989640;28;20061;-77
2022/09/17 03:34:17;;;;;;;16.48;15.38;;;13.90;69.30;;;;;;4991312;28;20038;-77
2022/09/17 03:36:43;;;;;;;15.88;14.68;;;13.80;69.20;;;;;;4990144;28;20053;-77
2022/09/17 03:39:09;;;;;;;15.45;14.45;;;13.80;69.20;;;;;;4990307;28;20038;-77
2022/09/17 03:41:35;;;;;;;15.68;14.88;;;13.70;69.30;;;;;;5003989;28;20376;-77
2022/09/17 03:44:01;;;;;;;14.43;13.63;;;13.80;69.20;;;;;;5009725;28;20190;-77
2022/09/17 03:46:27;;;;;;;14.45;13.55;;;13.80;69.40;;;;;;5009094;28;20049;-77
2022/09/17 03:48:53;;;;;;;14.23;13.30;;;13.70;69.00;;;;;;4993074;28;20029;-77
2022/09/17 03:51:19;;;;;;;16.23;15.23;;;13.70;69.20;;;;;;4993394;28;20053;-77
2022/09/17 03:53:46;;;;;;;17.83;16.83;;;13.70;69.70;;;;;;5010866;28;20029;-77
2022/09/17 03:56:12;;;;;;;16.02;15.15;;;13.70;69.80;;;;;;5011248;28;20030;-77
2022/09/17 03:58:38;;;;;;;19.58;18.38;;;13.60;69.70;;;;;;5009655;28;20030;-77
2022/09/17 04:01:04;;;;;;;19.98;18.75;;;13.50;69.90;;;;;;5010519;28;20038;-76
2022/09/17 04:03:30;;;;;;;24.45;23.05;;;13.50;70.00;;;;;;5009051;28;20502;-77
2022/09/17 04:05:56;;;;;;;24.33;22.77;;;13.50;70.40;;;;;;4997886;28;20053;-77
2022/09/17 04:08:23;;;;;;;21.30;19.88;;;13.50;70.10;;;;;;4997273;28;20042;-77
2022/09/17 04:10:50;;;;;;;20.02;18.92;;;13.50;70.00;;;;;;4996965;28;20045;-76
2022/09/17 04:13:17;;;;;;;18.10;17.10;;;13.40;70.20;;;;;;5013613;28;20033;-77
2022/09/17 04:15:43;;;;;;;20.00;18.92;;;13.40;70.40;;;;;;5012972;28;20041;-77
2022/09/17 04:18:10;;;;;;;23.40;22.10;;;13.30;70.30;;;;;;5013254;28;20053;-77
2022/09/17 04:20:36;;;;;;;20.95;19.75;;;13.30;70.30;;;;;;5013268;28;20040;-77
2022/09/17 04:23:02;;;;;;;18.95;17.95;;;13.30;70.40;;;;;;4997206;28;20042;-77
2022/09/17 04:25:28;;;;;;;17.77;16.77;;;13.30;70.40;;;;;;5014641;28;20038;-77
2022/09/17 04:27:54;;;;;;;18.23;17.33;;;13.20;70.10;;;;;;5013145;28;20030;-77
2022/09/17 04:30:20;;;;;;;18.55;17.45;;;13.30;70.20;;;;;;4999066;28;20042;-77
2022/09/17 04:32:46;;;;;;;21.42;20.33;;;13.20;70.30;;;;;;5016121;28;20060;-77
2022/09/17 04:35:12;;;;;;;16.60;15.68;;;13.20;72.10;;;;;;5016356;28;20367;-77
2022/09/17 04:37:38;;;;;;;18.17;17.02;;;13.00;72.30;;;;;;5016437;28;20037;-77
2022/09/17 04:40:05;;;;;;;16.77;15.80;;;12.90;73.50;;;;;;5016255;28;20029;-76
2022/09/17 04:42:31;;;;;;;20.88;19.67;;;12.90;72.90;;;;;;5015745;28;20761;-77
2022/09/17 04:44:57;;;;;;;20.35;18.95;;;12.90;72.60;;;;;;5028837;28;20048;-77
2022/09/17 04:47:24;;;;;;;18.05;17.05;;;13.00;71.70;;;;;;5045426;28;20391;-77
2022/09/17 04:49:50;;;;;;;21.75;20.30;;;13.10;71.80;;;;;;5016144;28;20041;-77
2022/09/17 04:52:16;;;;;;;22.42;21.20;;;13.10;71.70;;;;;;4999897;28;20498;-77
2022/09/17 04:54:42;;;;;;;18.88;17.77;;;13.00;72.50;;;;;;5032668;28;20517;-76
2022/09/17 04:57:08;;;;;;;18.33;17.33;;;13.10;72.40;;;;;;5016136;28;20041;-76
2022/09/17 04:59:34;;;;;;;16.35;15.45;;;13.10;72.90;;;;;;5015985;28;20478;-77
2022/09/17 05:02:00;;;;;;;18.35;17.25;;;13.00;72.00;;;;;;4995808;28;20033;-77
2022/09/17 05:04:26;;;;;;;17.88;16.83;;;13.00;71.70;;;;;;5012330;28;20050;-77
2022/09/17 05:06:52;;;;;;;20.15;19.05;;;13.00;71.50;;;;;;5012534;28;20037;-77
2022/09/17 05:09:19;;;;;;;20.45;19.17;;;13.00;71.50;;;;;;5028966;28;20037;-76
2022/09/17 05:11:45;;;;;;;18.90;17.83;;;13.00;71.40;;;;;;4996258;28;20057;-77
2022/09/17 05:14:12;;;;;;;19.40;18.30;;;13.00;71.10;;;;;;5013736;28;20036;-77
2022/09/17 05:16:39;;;;;;;22.95;21.58;;;13.00;71.10;;;;;;5024092;28;20041;-77
2022/09/17 05:19:05;;;;;;;23.70;22.20;;;13.00;71.90;;;;;;4999523;28;20070;-77
2022/09/17 05:21:31;;;;;;;23.85;22.52;;;13.00;71.20;;;;;;5013500;28;20049;-79
2022/09/17 05:24:00;;;;;;;23.27;21.95;;;13.00;71.20;;;;;;4999433;28;20387;-77
2022/09/17 05:26:26;;;;;;;24.23;22.92;;;13.00;71.30;;;;;;5032127;28;20029;-77
2022/09/17 05:28:52;;;;;;;25.30;23.50;;;12.90;71.40;;;;;;5015584;28;20029;-77
2022/09/17 05:31:18;;;;;;;27.08;25.33;;;12.90;71.30;;;;;;5014492;28;20041;-76
2022/09/17 05:33:44;;;;;;;29.27;27.63;;;12.90;71.90;;;;;;5015275;28;20038;-77
2022/09/17 05:36:10;;;;;;;30.73;29.10;;;12.80;72.00;;;;;;4998756;28;20042;-77
2022/09/17 05:38:37;;;;;;;31.00;29.20;;;12.70;72.50;;;;;;5015366;28;20492;-79
2022/09/17 05:41:05;;;;;;;25.77;24.38;;;12.70;72.10;;;;;;5005367;28;20048;-77
2022/09/17 05:43:31;;;;;;;26.42;25.08;;;12.70;72.00;;;;;;5016406;28;20045;-77
2022/09/17 05:46:02;;;;;;;32.95;31.05;;;12.70;71.90;;;;;;5050752;28;20505;-76
2022/09/17 05:48:28;;;;;;;31.70;30.08;;;12.70;72.00;;;;;;5035874;28;20057;-79
2022/09/17 05:50:54;;;;;;;34.83;33.03;;;12.70;72.50;;;;;;5013902;28;20034;-79
2022/09/17 05:53:21;;;;;;;30.00;28.33;;;12.70;72.50;;;;;;5031466;28;20053;-77
2022/09/17 05:55:47;;;;;;;28.45;26.83;;;12.70;72.50;;;;;;4998768;28;20042;-77
2022/09/17 05:58:14;;;;;;;31.17;29.33;;;12.70;72.90;;;;;;5014913;28;20101;-77
2022/09/17 06:00:41;;;;;;;34.38;32.38;;;12.70;72.40;;;;;;4994634;28;20030;-77
2022/09/17 06:03:11;;;;;;;34.63;32.53;;;12.70;72.80;;;;;;4995116;28;20041;-77
2022/09/17 06:05:37;;;;;;;31.08;29.27;;;12.70;72.50;;;;;;5011569;28;20034;-77
2022/09/17 06:08:04;;;;;;;32.92;31.10;;;12.70;72.50;;;;;;5011442;28;20467;-77
2022/09/17 06:10:31;;;;;;;42.50;39.20;;;12.70;72.30;;;;;;5011569;28;20049;-77
2022/09/17 06:13:00;;;;;;;41.05;38.47;;;12.70;72.70;;;;;;5027672;28;20038;-77
2022/09/17 06:15:26;;;;;;;37.70;35.55;;;12.60;72.40;;;;;;5014421;28;20406;-77
2022/09/17 06:17:52;;;;;;;38.13;36.03;;;12.70;72.70;;;;;;4997257;28;20045;-76
2022/09/17 06:20:19;;;;;;;36.63;34.63;;;12.60;72.60;;;;;;5030896;28;20041;-77
2022/09/17 06:22:45;;;;;;;36.97;34.80;;;12.60;73.10;;;;;;5014432;28;20025;-77
2022/09/17 06:25:11;;;;;;;31.70;30.00;;;12.70;73.00;;;;;;5014345;28;20049;-77
2022/09/17 06:27:37;;;;;;;35.60;33.60;;;12.70;73.30;;;;;;5029927;28;20030;-76
2022/09/17 06:30:06;;;;;;;28.08;26.48;;;12.70;74.60;;;;;;5046450;28;20045;-77
2022/09/17 06:32:33;;;;;;;16.90;15.75;;;13.00;75.30;;;;;;5029120;28;20053;-77
2022/09/17 06:34:59;;;;;;;15.60;14.57;;;13.20;76.10;;;;;;5047318;28;20046;-77
2022/09/17 06:37:27;;;;;;;15.45;14.45;;;13.50;75.20;;;;;;5047145;28;20037;-77
2022/09/17 06:39:53;;;;;;;16.95;15.77;;;13.80;74.60;;;;;;5063483;28;20037;-77
2022/09/17 06:42:19;;;;;;;17.98;16.88;;;14.10;73.70;;;;;;5030536;28;20367;-76
2022/09/17 06:44:45;;;;;;;16.90;15.70;;;14.40;73.10;;;;;;5041324;28;20039;-77
2022/09/17 06:47:12;;;;;;;18.70;17.30;;;14.70;71.90;;;;;;5043773;28;20092;-77
2022/09/17 06:49:38;;;;;;;17.50;16.15;;;15.00;70.80;;;;;;5031660;28;20033;-77
2022/09/17 06:52:04;;;;;;;17.35;16.27;;;15.40;69.80;;;;;;5030098;28;20040;-77
2022/09/17 06:54:30;;;;;;;18.70;17.25;;;15.60;68.40;;;;;;5030301;28;20033;-77
2022/09/17 06:56:56;;;;;;;18.98;17.88;;;15.90;67.50;;;;;;5013721;28;20037;-78
2022/09/17 06:59:22;;;;;;;19.05;18.02;;;16.10;66.60;;;;;;5030097;28;20026;-77
2022/09/17 07:01:48;;;;;;;20.67;19.48;;;16.30;65.50;;;;;;5030922;28;20486;-77
2022/09/17 07:04:16;;;;;;;21.05;19.95;;;16.60;64.80;;;;;;5030345;28;20056;-77
2022/09/17 07:06:42;;;;;;;20.73;19.63;;;16.80;64.30;;;;;;5013899;28;20045;-77
2022/09/17 07:09:09;;;;;;;23.90;22.52;;;16.90;63.60;;;;;;4997361;28;20044;-77
2022/09/17 07:11:35;;;;;;;27.77;26.23;;;17.10;63.30;;;;;;4997399;28;20041;-77
2022/09/17 07:14:03;;;;;;;30.33;28.42;;;17.10;62.20;;;;;;5013763;28;20044;-77
2022/09/17 07:16:33;;;;;;;42.05;39.85;;;17.00;62.40;;;;;;5030963;28;20037;-77
2022/09/17 07:19:00;;;;;;;34.90;33.10;;;17.20;61.50;;;;;;4998431;28;20068;-77
2022/09/17 07:21:26;;;;;;;31.45;29.85;;;17.40;61.30;;;;;;5029757;28;20556;-77
2022/09/17 07:23:52;;;;;;;33.78;32.08;;;17.60;61.10;;;;;;5013236;28;20038;-77
2022/09/17 07:26:18;;;;;;;33.67;31.63;;;17.80;60.90;;;;;;5013336;28;20493;-77
2022/09/17 07:28:44;;;;;;;32.17;30.50;;;17.70;59.80;;;;;;5029583;28;20053;-77
2022/09/17 07:31:11;;;;;;;31.88;30.17;;;17.50;59.00;;;;;;5028889;28;20031;-77
2022/09/17 07:33:37;;;;;;;28.85;27.35;;;17.60;59.00;;;;;;5046227;28;20032;-77
2022/09/17 07:36:07;;;;;;;31.20;29.48;;;17.50;58.40;;;;;;5046463;28;20037;-77
2022/09/17 07:38:34;;;;;;;27.80;26.23;;;17.50;59.80;;;;;;5028809;28;20053;-77
2022/09/17 07:41:01;;;;;;;29.70;28.10;;;17.50;58.40;;;;;;5044661;28;20251;-77
2022/09/17 07:43:29;;;;;;;29.75;28.25;;;17.70;59.10;;;;;;5029918;28;20025;-77
2022/09/17 07:45:56;;;;;;;30.27;28.70;;;17.30;58.40;;;;;;5032085;28;20036;-77
2022/09/17 07:48:22;;;;;;;31.42;29.73;;;16.90;59.20;;;;;;5034607;28;20057;-77
2022/09/17 07:50:50;;;;;;;31.35;29.67;;;17.00;59.40;;;;;;4997305;28;20052;-77
2022/09/17 07:53:17;;;;;;;36.17;34.35;;;17.30;59.50;;;;;;4996294;28;20107;-77
2022/09/17 07:55:56;;;;;;;38.65;36.75;;;17.30;57.60;;;;;;5012770;28;20025;-77
2022/09/17 07:58:23;;;;;;;26.30;24.92;;;17.20;57.80;;;;;;5013915;28;20048;-77
2022/09/17 08:00:49;;;;;;;20.35;19.35;;;17.10;57.60;;;;;;4993225;28;20368;-77
2022/09/17 08:03:15;;;;;;;20.92;19.73;;;17.00;57.20;;;;;;5009618;28;20037;-77
2022/09/17 08:05:42;;;;;;;22.67;21.35;;;17.00;57.60;;;;;;5009759;28;20026;-77
2022/09/17 08:08:08;;;;;;;22.27;21.00;;;17.10;58.40;;;;;;4992647;28;20045;-77
2022/09/17 08:10:34;;;;;;;23.02;21.73;;;17.20;57.20;;;;;;5025479;28;20040;-77
2022/09/17 08:13:01;;;;;;;23.23;21.48;;;17.20;56.80;;;;;;5010714;28;20065;-77
2022/09/17 08:15:27;;;;;;;21.88;20.77;;;17.30;57.10;;;;;;5012384;28;20041;-78
2022/09/17 08:17:53;;;;;;;22.10;20.92;;;17.10;57.40;;;;;;5012861;28;20029;-77
2022/09/17 08:20:20;;;;;;;21.27;20.20;;;17.20;57.60;;;;;;4997015;28;20413;-77
2022/09/17 08:22:46;;;;;;;20.83;19.83;;;17.30;57.30;;;;;;5012876;28;20029;-77
2022/09/17 08:25:12;;;;;;;23.17;21.98;;;17.60;56.40;;;;;;5012419;28;20037;-77
2022/09/17 08:27:38;;;;;;;19.98;18.98;;;17.80;57.10;;;;;;5030382;28;20026;-77
2022/09/17 08:30:06;;;;;;;20.05;18.88;;;17.90;55.80;;;;;;5012364;28;20033;-78
2022/09/17 08:32:32;;;;;;;18.73;17.58;;;18.00;55.50;;;;;;5012700;28;20045;-77
2022/09/17 08:34:58;;;;;;;17.65;16.75;;;18.20;55.40;;;;;;4995412;28;20041;-78
2022/09/17 08:37:27;;;;;;;17.17;16.27;;;18.40;54.30;;;;;;5012960;28;20048;-78
2022/09/17 08:39:53;;;;;;;17.60;16.67;;;18.40;54.40;;;;;;5012356;28;20029;-78
2022/09/17 08:42:34;;;;;;;18.48;17.48;;;18.60;53.90;;;;;;5012456;28;20041;-78
2022/09/17 08:45:04;;;;;;;19.30;18.30;;;18.90;54.30;;;;;;5041918;28;20051;-78
2022/09/17 08:47:35;;;;;;;19.23;18.23;;;19.40;53.60;;;;;;5024222;28;20054;-78
2022/09/17 08:50:06;;;;;;;18.10;17.20;;;19.90;51.80;;;;;;5012778;28;20476;-77
2022/09/17 08:52:58;;;;;;;18.10;17.13;;;19.60;50.80;;;;;;5032659;28;20477;-78
2022/09/17 08:55:39;;;;;;;18.92;17.92;;;19.30;52.00;;;;;;5033694;28;20029;-78
2022/09/17 08:58:42;;;;;;;18.45;17.45;;;19.30;51.20;;;;;;5032653;28;20037;-77
2022/09/17 09:01:37;;;;;;;18.63;17.52;;;19.20;51.00;;;;;;5033271;28;20052;-77
2022/09/17 09:04:19;;;;;;;18.55;17.65;;;18.90;51.30;;;;;;5031349;28;20478;-77
2022/09/17 09:07:09;;;;;;;19.60;18.60;;;18.80;51.70;;;;;;5032614;28;20033;-77
2022/09/17 09:09:47;;;;;;;19.50;18.40;;;18.80;51.20;;;;;;4997508;28;20040;-78
2022/09/17 09:12:23;;;;;;;19.30;18.20;;;18.80;52.10;;;;;;4994694;28;20045;-78
2022/09/17 09:14:55;;;;;;;19.20;18.20;;;19.10;50.90;;;;;;4978635;28;20388;-78
2022/09/17 09:17:22;;;;;;;20.60;19.30;;;19.30;51.10;;;;;;4994472;28;20048;-78
2022/09/17 09:19:48;;;;;;;19.75;18.55;;;19.30;50.00;;;;;;4994717;28;20465;-77
2022/09/17 09:22:39;;;;;;;18.75;17.75;;;19.40;49.70;;;;;;4978291;28;20049;-78
2022/09/17 09:25:05;;;;;;;20.42;19.23;;;19.50;48.30;;;;;;4994607;28;20054;-78
2022/09/17 09:27:43;;;;;;;18.10;17.00;;;19.30;48.40;;;;;;5011088;28;20042;-78
2022/09/17 09:30:09;;;;;;;18.88;17.88;;;19.20;48.70;;;;;;4994070;28;20044;-77
2022/09/17 09:33:00;;;;;;;22.23;20.90;;;19.20;48.80;;;;;;4994756;28;20046;-78
2022/09/17 09:35:27;;;;;;;22.23;21.02;;;19.30;47.40;;;;;;5010511;28;20053;-77
2022/09/17 09:37:58;;;;;;;20.85;19.63;;;19.30;47.50;;;;;;4994155;28;20033;-78
2022/09/17 09:40:30;;;;;;;21.20;20.17;;;19.10;47.40;;;;;;4990962;28;20522;-78
2022/09/17 09:42:59;;;;;;;18.80;17.73;;;19.20;47.50;;;;;;4975322;28;20587;-78
2022/09/17 09:45:50;;;;;;;19.77;18.40;;;19.20;48.20;;;;;;4968468;28;20035;-78
2022/09/17 09:48:32;;;;;;;23.00;21.70;;;19.40;48.10;;;;;;5005203;28;20050;-78
2022/09/17 09:51:25;;;;;;;22.17;20.83;;;19.50;46.70;;;;;;5011742;28;20383;-78
2022/09/17 09:54:17;;;;;;;19.98;18.67;;;19.60;46.80;;;;;;4996473;28;20054;-78
2022/09/17 09:57:31;;;;;;;25.40;24.10;;;19.70;47.70;;;;;;5011379;28;20406;-78
2022/09/17 10:00:24;;;;;;;23.58;22.27;;;20.00;46.30;;;;;;4955405;28;20412;-78
2022/09/17 10:02:52;;;;;;;24.33;23.02;;;19.70;46.10;;;;;;4973297;28;20035;-78
2022/09/17 10:05:18;;;;;;;24.67;23.40;;;19.70;46.70;;;;;;4958677;28;20085;-78
2022/09/17 10:07:44;;;;;;;23.38;22.08;;;19.70;45.50;;;;;;4957828;28;20035;-78
2022/09/17 10:10:11;;;;;;;24.70;23.38;;;19.50;45.50;;;;;;4958187;28;20043;-78
2022/09/17 10:12:37;;;;;;;24.00;22.63;;;19.60;46.30;;;;;;4957890;28;20046;-78
2022/09/17 10:15:32;;;;;;;24.52;23.23;;;19.50;46.00;;;;;;4958209;28;20045;-78
2022/09/17 10:18:17;;;;;;;24.85;23.45;;;19.60;45.40;;;;;;4982137;28;20138;-78
2022/09/17 10:20:52;;;;;;;25.23;23.92;;;19.50;44.20;;;;;;4958926;28;20376;-78
2022/09/17 10:23:20;;;;;;;24.60;23.17;;;19.60;45.30;;;;;;4974047;28;20045;-78
2022/09/17 10:25:46;;;;;;;25.15;23.83;;;19.80;45.20;;;;;;4957045;28;20030;-77
2022/09/17 10:28:29;;;;;;;26.05;24.63;;;19.70;44.50;;;;;;4949403;28;20034;-78
2022/09/17 10:30:57;;;;;;;24.25;22.95;;;19.60;44.10;;;;;;4983062;28;20057;-78
2022/09/17 10:33:26;;;;;;;23.80;22.33;;;19.30;44.20;;;;;;5027628;28;20038;-78
2022/09/17 10:35:56;;;;;;;23.73;22.23;;;19.20;44.90;;;;;;5010867;28;20490;-77
2022/09/17 10:38:30;;;;;;;24.20;22.80;;;19.30;44.90;;;;;;5011153;28;20046;-78
2022/09/17 10:41:16;;;;;;;24.75;23.45;;;19.30;43.90;;;;;;5025697;28;20017;-77
2022/09/17 10:43:42;;;;;;;24.98;23.77;;;19.50;44.80;;;;;;5030696;28;20386;-77
2022/09/17 10:46:11;;;;;;;23.73;22.48;;;19.50;43.90;;;;;;5013358;28;20048;-78
2022/09/17 10:48:40;;;;;;;26.15;24.55;;;19.50;44.60;;;;;;5013643;28;20064;-78
2022/09/17 10:51:07;;;;;;;24.92;23.60;;;19.50;44.60;;;;;;4997658;28;20040;-78
2022/09/17 10:53:53;;;;;;;25.08;23.73;;;19.70;44.00;;;;;;5013198;28;20033;-78
2022/09/17 10:56:26;;;;;;;24.75;23.45;;;19.90;43.20;;;;;;4999983;28;20033;-78
2022/09/17 10:58:58;;;;;;;23.95;22.45;;;20.10;42.40;;;;;;5014204;28;20041;-77
2022/09/17 11:01:36;;;;;;;24.27;22.80;;;19.90;43.00;;;;;;5029671;28;20030;-78
2022/09/17 11:04:19;;;;;;;24.30;22.92;;;20.00;42.50;;;;;;5030158;28;20029;-77
2022/09/17 11:07:12;;;;;;;25.00;23.70;;;20.10;42.70;;;;;;5030163;28;20040;-78
2022/09/17 11:10:03;;;;;;;23.52;22.33;;;20.10;42.20;;;;;;5016779;28;20038;-77
2022/09/17 11:13:01;;;;;;;24.00;22.80;;;19.80;41.90;;;;;;5015998;28;20041;-78
2022/09/17 11:15:42;;;;;;;22.42;21.27;;;19.80;42.40;;;;;;4988157;28;20268;-78
2022/09/17 11:18:42;;;;;;;23.00;21.80;;;19.60;41.40;;;;;;5004574;28;20042;-78
2022/09/17 11:21:29;;;;;;;23.45;22.10;;;19.80;41.30;;;;;;5005959;28;20531;-78
2022/09/17 11:24:06;;;;;;;23.58;22.30;;;20.00;41.50;;;;;;5005023;28;20030;-78
2022/09/17 11:26:40;;;;;;;22.70;21.40;;;20.00;41.50;;;;;;5005675;28;20065;-78
2022/09/17 11:29:43;;;;;;;25.05;23.65;;;19.90;41.30;;;;;;5005178;28;20513;-78
2022/09/17 11:32:33;;;;;;;24.27;22.75;;;20.10;42.00;;;;;;4988844;28;20041;-78
2022/09/17 11:35:01;;;;;;;25.00;23.23;;;19.90;41.90;;;;;;4992706;28;20109;-77
2022/09/17 11:37:31;;;;;;;24.95;23.45;;;19.90;42.20;;;;;;4992604;28;20408;-78
2022/09/17 11:39:59;;;;;;;24.55;23.02;;;20.10;41.90;;;;;;4975705;28;20049;-78
2022/09/17 11:42:37;;;;;;;25.50;24.15;;;20.20;41.80;;;;;;5008736;28;20487;-77
2022/09/17 11:45:23;;;;;;;26.10;24.52;;;20.20;41.80;;;;;;4981995;28;20045;-78
2022/09/17 11:47:56;;;;;;;29.13;27.13;;;20.40;41.90;;;;;;4993037;28;20065;-78
2022/09/17 11:50:49;;;;;;;24.38;23.02;;;20.50;41.30;;;;;;4976342;28;20045;-78
2022/09/17 11:53:22;;;;;;;24.63;23.27;;;20.50;40.70;;;;;;5025333;28;20045;-78
2022/09/17 11:55:51;;;;;;;23.58;22.17;;;20.20;41.30;;;;;;5013376;28;20037;-77
2022/09/17 11:58:24;;;;;;;24.98;23.27;;;20.10;41.00;;;;;;5013315;28;20382;-78
2022/09/17 12:00:54;;;;;;;23.85;22.35;;;20.10;41.60;;;;;;5029019;28;20037;-78
2022/09/17 12:03:33;;;;;;;24.23;22.83;;;20.20;41.40;;;;;;4996744;28;20070;-78
2022/09/17 12:06:09;;;;;;;23.85;22.45;;;20.10;40.90;;;;;;4997825;28;20048;-77
2022/09/17 12:08:58;;;;;;;24.13;22.63;;;20.10;41.30;;;;;;4997304;28;20402;-78
2022/09/17 12:11:40;;;;;;;24.52;23.13;;;20.20;41.10;;;;;;5012594;28;20037;-77
2022/09/17 12:14:25;;;;;;;25.42;23.73;;;20.40;41.60;;;;;;5014314;28;20030;-78
2022/09/17 12:16:57;;;;;;;24.52;23.10;;;20.60;40.80;;;;;;5012661;28;20033;-78
2022/09/17 12:19:44;;;;;;;23.95;22.65;;;20.80;39.90;;;;;;4996890;28;20033;-78
2022/09/17 12:22:20;;;;;;;25.02;23.55;;;20.70;39.70;;;;;;4998621;28;20418;-77
2022/09/17 12:24:49;;;;;;;24.70;23.10;;;20.50;40.50;;;;;;5013841;28;20037;-77
2022/09/17 12:27:33;;;;;;;25.10;23.75;;;20.40;40.10;;;;;;5016729;28;20026;-77
2022/09/17 12:30:09;;;;;;;24.35;23.05;;;20.40;40.30;;;;;;5033161;28;20038;-77
2022/09/17 12:32:50;;;;;;;23.42;21.95;;;20.50;40.20;;;;;;5015117;28;20026;-78
2022/09/17 12:35:19;;;;;;;;;;;20.70;40.60;;;;;;5034708;28;20040;-77
2022/09/17 12:38:10;;;;;;;23.63;22.25;;;20.90;39.20;;;;;;5032786;28;19905;-77
2022/09/17 12:40:47;;;;;;;22.92;21.73;;;21.00;38.40;;;;;;5027093;28;20475;-78
2022/09/17 12:43:32;;;;;;;22.95;21.45;;;20.70;38.90;;;;;;4997632;28;20041;-77
2022/09/17 12:46:06;;;;;;;22.55;21.25;;;20.70;39.20;;;;;;5016354;28;20041;-77
2022/09/17 12:48:39;;;;;;;23.48;21.85;;;20.60;39.00;;;;;;5028379;28;20042;-77
2022/09/17 12:51:18;;;;;;;22.05;20.70;;;20.60;39.00;;;;;;5016757;28;20040;-78
2022/09/17 12:53:56;;;;;;;21.83;20.60;;;20.60;39.20;;;;;;5032638;28;20080;-77